Flight Track Log - Related Links

Times and Time Zones

All times are in EDT time to prevent confusion due to time zone crossing. See the EJA365 flight status page for this flight to view local times or setup timezone preferences in your user account.

Time Position Orientation Groundspeed Altitude Reporting Facility
EDT Latitude Longitude Course Direction KTS MPH feet Rate Location/Type
Mon 11:23:17 AM 36.6667 -121.8667 141° Southeast 237 273 4,900  Level Northern Cal TRACON
Mon 11:24:17 AM 36.6667 -121.7833 90° East 258 297 6,900 1,050 Climbing Northern Cal TRACON
Mon 11:25:17 AM 36.6667 -121.6833 90° East 277 319 7,000  Climbing Northern Cal TRACON
Mon 11:26:17 AM 36.6611 -121.6019 95° East 284 327 6,900 1,041 Descending Oakland Center
Mon 11:27:18 AM 36.5986 -121.5381 141° Southeast 296 341 9,100 3,049 Climbing Oakland Center
Mon 11:28:00 AM 36.3346 -121.2846 141° Southeast  Level FlightAware Approximate
Mon 11:28:19 AM 36.5303 -121.4725 142° Southeast 310 357 13,100  Level Oakland Center
Mon 11:29:20 AM 36.4564 -121.3981 141° Southeast 338 389 16,700 1,869 Climbing Oakland Center
Mon 11:30:21 AM 36.3722 -121.3131 141° Southeast 388 447 16,900 98 Climbing Oakland Center
Mon 11:31:22 AM 36.2700 -121.2131 142° Southeast 391 450 16,900  Level Oakland Center
Mon 11:32:24 AM 36.1858 -121.1297 141° Southeast 388 447 16,900  Level Oakland Center
Mon 11:33:25 AM 36.1022 -121.0467 141° Southeast 386 444 16,900  Level Oakland Center
Mon 11:34:26 AM 36.0181 -120.9647 142° Southeast 386 444 16,900 49 Level Oakland Center
Mon 11:35:27 AM 35.9328 -120.8817 142° Southeast 389 448 17,000 49 Climbing Oakland Center
Mon 11:36:28 AM 35.8486 -120.7969 141° Southeast 390 449 17,000  Level Oakland Center
Mon 11:37:30 AM 35.7631 -120.7158 142° Southeast 388 447 17,000  Level Oakland Center
Mon 11:38:31 AM 35.6775 -120.6336 142° Southeast 392 451 17,000  Level Oakland Center
Mon 11:39:32 AM 35.5867 -120.5633 148° Southeast 387 445 17,000  Level Oakland Center
Mon 11:40:34 AM 35.4944 -120.4947 149° Southeast 386 444 17,000  Level Oakland Center
Mon 11:41:35 AM 35.3978 -120.4231 149° Southeast 390 449 17,000  Level Oakland Center
Mon 11:42:36 AM 35.3042 -120.3536 149° Southeast 392 451 17,000  Level Oakland Center
Mon 11:43:37 AM 35.2047 -120.2800 149° Southeast 391 450 17,000  Level Oakland Center
Mon 11:44:38 AM 35.1131 -120.2122 149° Southeast 389 448 17,000  Level Oakland Center
Mon 11:45:40 AM 35.0206 -120.1442 149° Southeast 389 448 17,000 -244 Level Oakland Center
Mon 11:46:41 AM 34.9089 -120.0631 149° Southeast 389 448 16,500 -738 Descending Oakland Center
Mon 11:47:42 AM 34.8169 -119.9950 149° Southeast 388 447 15,500 -984 Descending Oakland Center
Mon 11:48:43 AM 34.7261 -119.9275 149° Southeast 385 443 14,500 -947 Descending Oakland Center
Mon 11:48:58 AM 34.7081 -119.9142 149° Southeast 383 441 14,300 -935 Descending Los Angeles Center
Mon 11:50:00 AM 34.6183 -119.8489 149° Southeast 379 436 13,300 -968 Descending Los Angeles Center
Mon 11:51:02 AM 34.5472 -119.7589 134° Southeast 388 447 12,300 -1,065 Descending Los Angeles Center
Mon 11:52:04 AM 34.4750 -119.6439 127° Southeast 360 414 11,100 -1,009 Descending Los Angeles Center
Mon 11:52:49 AM 34.4317 -119.5764 128° Southeast 338 389 10,500 -774 Descending Los Angeles Center
Mon 11:53:06 AM 34.4119 -119.5606 146° Southeast 345 397 10,300 -985 Descending Los Angeles Center
Mon 11:53:56 AM 34.3733 -119.4883 123° Southeast 293 337 9,400 -703 Descending Los Angeles Center
Mon 11:54:57 AM 34.3233 -119.4078 127° Southeast 292 336 9,000 -843 Descending Los Angeles Center
Mon 11:55:57 AM 34.2753 -119.3269 126° Southeast 292 336 7,700 -1,200 Descending Los Angeles Center
Mon 11:56:12 AM 34.2697 -119.3181 127° Southeast 289 333 7,500 -1,475 Descending Los Angeles Center
Mon 11:56:58 AM 34.2667 -119.2283 92° East 284 327 6,200 -1,429 Descending Los Angeles Center
Mon 11:57:15 AM 34.2631 -119.2217 123° Southeast 287 330 6,000 -1,574 Descending Los Angeles Center
Mon 11:57:59 AM 34.2561 -119.1328 95° East 282 325 4,600 -1,742 Descending Los Angeles Center
Mon 11:58:17 AM 34.2539 -119.1136 98° East 278 320 4,200 -600 Descending Los Angeles Center
Mon 11:58:59 AM 34.2525 -119.0586 92° East 228 262 4,000 -194 Descending Los Angeles Center
Mon 11:59:19 AM 34.2514 -119.0358 93° East 250 288 4,000  Level Los Angeles Center
Mon 12:00:00 PM 34.2464 -118.9825 96° East 213 245 4,000 -194 Level Los Angeles Center
Mon 12:00:21 PM 34.2469 -118.9644 88° East 227 261 3,800 -800 Descending Los Angeles Center
Mon 12:01:00 PM 34.2242 -118.9219 123° Southeast 211 243 3,200 -581 Descending Los Angeles Center
Mon 12:01:23 PM 34.2142 -118.9247 193° South 203 234 3,200  Level Los Angeles Center
Mon 12:02:01 PM 34.1964 -118.9622 240° Southwest 173 199 3,200  Level Los Angeles Center
Mon 12:02:25 PM 34.1972 -118.9806 273° West 196 226 3,200 -295 Level Los Angeles Center
Mon 12:03:02 PM 34.1989 -119.0214 273° West 171 197 2,900 -97 Descending Los Angeles Center
Mon 12:03:27 PM 34.1978 -119.0450 267° West 186 214 3,100 -600 Climbing Los Angeles Center
Mon 12:04:02 PM 34.1994 -119.0628 276° West 117 135 2,300 -938 Descending Los Angeles Center
Mon 12:05:03 PM 34.2006 -119.1067 272° West 118 136 1,600 -645 Descending Los Angeles Center
Mon 12:06:03 PM 34.2006 -119.1456 270° West 117 135 1,000 -595 Descending Los Angeles Center
Mon 12:07:04 PM 34.2006 -119.1844 270° West 117 135 400 -590 Descending Los Angeles Center
Mon 12:09:00 PM 34.2000 -119.2000 260° West  Level FlightAware Approximate

Login

Don't have an account? Register now (free) for customized features, flight alerts, and more!